Time;durP1;ratioP1;P1;durP2;ratioP2;P2;SDS_P1;SDS_P2;PMS_P1;PMS_P2;Temp;Humidity;BMP_temperature;BMP_pressure;BME280_temperature;BME280_humidity;BME280_pressure;Samples;Min_cycle;Max_cycle;Signal;HPM_P1;HPM_P2
2023/04/17 00:00:00;;;;;;;1999.90;999.90;;;;;;;5.64;100.00;94723.88;5008127;28;20354;-56
2023/04/17 00:02:25;;;;;;;1999.90;999.90;;;;;;;5.63;100.00;94716.13;5008057;28;20197;-56
2023/04/17 00:04:51;;;;;;;1999.90;999.90;;;;;;;5.61;100.00;94707.66;5007541;28;20295;-56
2023/04/17 00:07:21;;;;;;;1999.90;999.90;;;;;;;5.61;100.00;94708.41;5007369;28;20195;-55
2023/04/17 00:09:46;;;;;;;1999.90;999.90;;;;;;;5.58;100.00;94705.72;5007318;28;20478;-56
2023/04/17 00:12:12;;;;;;;1999.90;999.90;;;;;;;5.53;100.00;94704.16;5007456;28;20195;-55
2023/04/17 00:14:37;;;;;;;1999.90;999.90;;;;;;;5.51;100.00;94692.19;5007483;28;20211;-56
2023/04/17 00:17:02;;;;;;;1999.90;999.90;;;;;;;5.47;100.00;94699.53;5007696;28;20241;-57
2023/04/17 00:19:28;;;;;;;1999.90;999.90;;;;;;;5.46;100.00;94695.28;5008033;28;20195;-56
2023/04/17 00:21:53;;;;;;;1999.90;999.90;;;;;;;5.43;100.00;94696.06;5007740;28;20278;-56
2023/04/17 00:24:18;;;;;;;1999.90;999.90;;;;;;;5.40;100.00;94691.41;5007375;28;20499;-56
2023/04/17 00:26:44;;;;;;;1999.90;999.90;;;;;;;5.39;100.00;94690.63;5007837;28;20182;-56
2023/04/17 00:29:09;;;;;;;1999.90;999.90;;;;;;;5.39;100.00;94603.25;5007772;28;20235;-56
2023/04/17 00:31:35;;;;;;;1999.90;999.90;;;;;;;5.35;100.00;94597.06;5007224;28;20201;-55
2023/04/17 00:34:00;;;;;;;1999.90;999.90;;;;;;;5.34;100.00;94600.91;5007212;28;20240;-56
2023/04/17 00:36:26;;;;;;;1999.90;999.90;;;;;;;5.28;100.00;94592.41;5007465;28;20244;-57
2023/04/17 00:38:51;;;;;;;1999.90;999.90;;;;;;;5.29;100.00;94587.78;5007622;28;20202;-57
2023/04/17 00:41:17;;;;;;;1999.90;999.90;;;;;;;5.29;100.00;94587.78;5007159;28;20203;-57
2023/04/17 00:43:42;;;;;;;1999.90;999.90;;;;;;;5.32;100.00;94587.00;5007312;28;20208;-57
2023/04/17 00:46:08;;;;;;;1999.90;999.90;;;;;;;5.31;100.00;94569.22;5008075;28;20220;-57
2023/04/17 00:48:34;;;;;;;1999.90;999.90;;;;;;;5.32;100.00;94568.06;5011123;28;20234;-57
2023/04/17 00:51:03;;;;;;;1999.90;999.90;;;;;;;5.32;100.00;94565.38;5011432;28;20195;-56
2023/04/17 00:53:32;;;;;;;1999.90;999.90;;;;;;;5.33;100.00;94566.91;5011157;28;20219;-57
2023/04/17 00:55:59;;;;;;;1999.90;999.90;;;;;;;5.37;100.00;94559.53;5011281;28;20211;-56
2023/04/17 00:58:25;;;;;;;1999.90;999.90;;;;;;;5.36;100.00;94549.88;5011105;28;20235;-56
2023/04/17 01:00:51;;;;;;;1999.90;999.90;;;;;;;5.37;100.00;94546.00;5010902;28;20204;-55
2023/04/17 01:03:16;;;;;;;1999.90;999.90;;;;;;;5.43;100.00;94539.03;5010955;28;20210;-56
2023/04/17 01:05:48;;;;;;;1999.90;999.90;;;;;;;5.49;100.00;94532.03;5010922;28;20200;-56
2023/04/17 01:08:14;;;;;;;1999.90;999.90;;;;;;;5.50;100.00;94522.78;5010777;28;20505;-55
2023/04/17 01:10:39;;;;;;;1999.90;999.90;;;;;;;5.53;100.00;94516.56;5010809;28;20208;-56
2023/04/17 01:13:07;;;;;;;1999.90;999.90;;;;;;;5.52;100.00;94518.50;5010632;28;20263;-54
2023/04/17 01:15:33;;;;;;;1999.90;999.90;;;;;;;5.50;100.00;94506.53;5010406;28;20250;-56
2023/04/17 01:17:59;;;;;;;1999.90;999.90;;;;;;;5.48;100.00;94508.84;5010660;28;20320;-56
2023/04/17 01:20:28;;;;;;;1999.90;999.90;;;;;;;5.45;100.00;94515.81;5010307;28;20202;-58
2023/04/17 01:22:54;;;;;;;1999.90;999.90;;;;;;;5.45;100.00;94515.03;5010387;28;20182;-56
2023/04/17 01:25:20;;;;;;;1999.90;999.90;;;;;;;5.42;100.00;94515.81;5010744;28;20202;-56
2023/04/17 01:27:45;;;;;;;1999.90;999.90;;;;;;;5.45;100.00;94510.41;5010780;28;20228;-56
2023/04/17 01:30:11;;;;;;;1999.90;999.90;;;;;;;5.53;100.00;94513.84;5010683;28;20211;-55
2023/04/17 01:32:37;;;;;;;1999.90;999.90;;;;;;;5.59;100.00;94509.59;5010507;28;20197;-56
2023/04/17 01:35:02;;;;;;;1999.90;999.90;;;;;;;5.60;100.00;94511.13;5010011;28;20403;-56
2023/04/17 01:37:28;;;;;;;1999.90;999.90;;;;;;;5.63;100.00;94510.34;5010053;28;20420;-53
2023/04/17 01:39:54;;;;;;;1999.90;999.90;;;;;;;5.67;100.00;94516.50;5009938;28;20240;-53
2023/04/17 01:42:20;;;;;;;1999.90;999.90;;;;;;;5.71;100.00;94515.34;5010065;28;20442;-58
2023/04/17 01:44:45;;;;;;;1999.90;999.90;;;;;;;5.75;100.00;94513.38;5010058;28;20206;-54
2023/04/17 01:47:11;;;;;;;1999.90;999.90;;;;;;;5.80;100.00;94521.09;5009859;28;20389;-54
2023/04/17 01:49:36;;;;;;;1999.90;999.90;;;;;;;5.83;100.00;94522.28;5010402;28;20201;-53
2023/04/17 01:52:01;;;;;;;1999.90;999.90;;;;;;;5.87;100.00;94520.34;5009916;28;20249;-53
2023/04/17 01:54:27;;;;;;;1999.90;999.90;;;;;;;5.89;100.00;94521.47;5010050;28;20216;-54
2023/04/17 01:56:52;;;;;;;1999.90;999.90;;;;;;;5.97;100.00;94530.31;5010252;28;20212;-54
2023/04/17 01:59:17;;;;;;;1999.90;999.90;;;;;;;6.02;100.00;94527.22;5008824;28;20206;-52
2023/04/17 02:01:43;;;;;;;1999.90;999.90;;;;;;;6.06;100.00;94533.41;5010127;28;20210;-54
2023/04/17 02:04:08;;;;;;;1999.90;999.90;;;;;;;6.07;100.00;94551.19;5009794;28;20407;-51
2023/04/17 02:06:34;;;;;;;1999.90;999.90;;;;;;;6.10;100.00;94550.41;5009693;28;20201;-51
2023/04/17 02:08:59;;;;;;;1999.90;999.90;;;;;;;6.16;100.00;94555.00;5010043;28;20389;-54
2023/04/17 02:11:25;;;;;;;1999.90;999.90;;;;;;;6.22;100.00;94563.50;5009443;28;20224;-54
2023/04/17 02:13:50;;;;;;;1999.90;999.90;;;;;;;6.23;100.00;94571.25;5009396;28;20448;-53
2023/04/17 02:16:16;;;;;;;1999.90;999.90;;;;;;;6.28;100.00;94589.81;5009344;28;20438;-51
2023/04/17 02:18:41;;;;;;;1999.90;999.90;;;;;;;6.32;100.00;94611.47;5010178;28;20206;-55
2023/04/17 02:21:08;;;;;;;1999.90;999.90;;;;;;;6.36;100.00;94629.28;5009415;28;20286;-53
2023/04/17 02:23:34;;;;;;;1999.90;999.90;;;;;;;6.39;100.00;94657.53;5009269;28;20203;-54
2023/04/17 02:25:59;;;;;;;1999.90;999.90;;;;;;;6.42;100.00;94664.88;5009558;28;20218;-51
2023/04/17 02:28:25;;;;;;;1999.90;999.90;;;;;;;6.45;100.00;94672.25;5009614;28;20201;-55
2023/04/17 02:30:50;;;;;;;1999.90;999.90;;;;;;;6.45;100.00;94691.22;5009604;28;20284;-58
2023/04/17 02:33:16;;;;;;;1999.90;999.90;;;;;;;6.43;100.00;94697.03;5009335;28;20206;-57
2023/04/17 02:35:41;;;;;;;1999.90;999.90;;;;;;;6.44;100.00;94705.91;5009433;28;20218;-55
2023/04/17 02:38:07;;;;;;;1999.90;999.90;;;;;;;6.43;100.00;94721.44;5009034;28;20213;-51
2023/04/17 02:40:32;;;;;;;1999.90;999.90;;;;;;;6.41;100.00;94733.84;5009086;28;20199;-51
2023/04/17 02:42:57;;;;;;;1999.90;999.90;;;;;;;6.44;100.00;94749.31;5009051;28;20240;-55
2023/04/17 02:45:23;;;;;;;1999.90;999.90;;;;;;;6.41;100.00;94760.97;5008887;28;20209;-57
2023/04/17 02:47:48;;;;;;;1999.90;999.90;;;;;;;6.39;100.00;94757.84;5008880;28;20209;-55
2023/04/17 02:50:13;;;;;;;1999.90;999.90;;;;;;;6.38;100.00;94772.59;5008887;28;20482;-57
2023/04/17 02:52:39;;;;;;;1999.90;999.90;;;;;;;6.40;100.00;94775.66;5009023;28;20202;-56
2023/04/17 02:55:05;;;;;;;1999.90;999.90;;;;;;;6.38;100.00;94772.59;5008345;28;20226;-59
2023/04/17 02:57:31;;;;;;;1999.90;999.90;;;;;;;6.41;100.00;94774.53;5009369;28;20193;-58
2023/04/17 02:59:56;;;;;;;1999.90;999.90;;;;;;;6.45;100.00;94772.56;5008885;28;20202;-57
2023/04/17 03:02:22;;;;;;;1999.90;999.90;;;;;;;6.44;100.00;94779.13;5008751;28;20237;-57
2023/04/17 03:04:49;;;;;;;1999.90;999.90;;;;;;;6.45;100.00;94778.00;5008633;28;20214;-54
2023/04/17 03:07:18;;;;;;;1999.90;999.90;;;;;;;6.46;100.00;94771.41;5008762;28;20213;-56
2023/04/17 03:09:47;;;;;;;1999.90;999.90;;;;;;;6.45;100.00;94778.00;5008057;28;20502;-57
2023/04/17 03:12:14;;;;;;;1999.90;999.90;;;;;;;6.48;100.00;94771.75;5008251;28;20228;-57
2023/04/17 03:14:40;;;;;;;1999.90;999.90;;;;;;;6.52;100.00;94761.69;5008118;28;20554;-57
2023/04/17 03:17:06;;;;;;;1999.90;999.90;;;;;;;6.54;100.00;94760.13;5008385;28;20272;-59
2023/04/17 03:19:31;;;;;;;1999.90;999.90;;;;;;;6.56;100.00;94757.03;5008253;28;20214;-57
2023/04/17 03:21:57;;;;;;;1999.90;999.90;;;;;;;6.56;100.00;94746.94;5008711;28;20206;-58
2023/04/17 03:24:22;;;;;;;1999.90;999.90;;;;;;;6.62;100.00;94750.03;5008067;28;20429;-57
2023/04/17 03:26:48;;;;;;;1999.90;999.90;;;;;;;6.65;100.00;94735.69;5008381;28;20203;-58
2023/04/17 03:29:13;;;;;;;1999.90;999.90;;;;;;;6.67;100.00;94739.53;5008410;28;20198;-57
2023/04/17 03:31:38;;;;;;;1999.90;999.90;;;;;;;6.71;100.00;94742.25;5008204;28;20195;-58
2023/04/17 03:34:04;;;;;;;1999.90;999.90;;;;;;;6.77;100.00;94740.66;5008458;28;20201;-57
2023/04/17 03:36:29;;;;;;;1999.90;999.90;;;;;;;6.73;100.00;94737.19;5008288;28;20211;-58
2023/04/17 03:38:56;;;;;;;1999.90;999.90;;;;;;;6.78;100.00;94737.53;5008257;28;20199;-57
2023/04/17 03:41:22;;;;;;;1999.90;999.90;;;;;;;6.80;100.00;94732.50;5007707;28;20224;-58
2023/04/17 03:43:47;;;;;;;1999.90;999.90;;;;;;;6.78;100.00;94737.53;5007830;28;20222;-58
2023/04/17 03:46:12;;;;;;;1999.90;999.90;;;;;;;6.80;100.00;94745.28;5008025;28;20281;-56
2023/04/17 03:48:38;;;;;;;1999.90;999.90;;;;;;;6.84;100.00;94743.34;5007541;28;20240;-55
2023/04/17 03:51:03;;;;;;;1999.90;999.90;;;;;;;6.88;100.00;94749.53;5007890;28;20201;-57
2023/04/17 03:53:29;;;;;;;1999.90;999.90;;;;;;;6.89;100.00;94742.94;5008094;28;20220;-57
2023/04/17 03:55:55;;;;;;;1999.90;999.90;;;;;;;6.91;100.00;94740.59;5007411;28;20214;-57
2023/04/17 03:58:20;;;;;;;1999.90;999.90;;;;;;;6.92;100.00;94736.69;5007985;28;20272;-58
2023/04/17 04:00:47;;;;;;;1999.90;999.90;;;;;;;6.98;100.00;94724.28;5007784;28;20203;-58
2023/04/17 04:03:12;;;;;;;1999.90;999.90;;;;;;;7.02;100.00;94719.59;5007873;28;20202;-58
2023/04/17 04:05:38;;;;;;;1999.90;999.90;;;;;;;6.99;100.00;94717.66;5007723;28;20199;-58
2023/04/17 04:08:04;;;;;;;1999.90;999.90;;;;;;;7.05;100.00;94707.94;5008219;28;20209;-57
2023/04/17 04:10:31;;;;;;;1999.90;999.90;;;;;;;7.05;100.00;94699.03;5008046;28;20421;-57
2023/04/17 04:12:56;;;;;;;1999.90;999.90;;;;;;;7.04;100.00;94695.56;5007447;28;20198;-56
2023/04/17 04:15:22;;;;;;;1999.90;999.90;;;;;;;7.04;100.00;94683.91;5007381;28;20444;-59
2023/04/17 04:17:47;;;;;;;1999.90;999.90;;;;;;;7.02;100.00;94673.47;5007232;28;20205;-57
2023/04/17 04:20:13;;;;;;;1999.90;999.90;;;;;;;7.00;100.00;94675.03;5007647;28;20194;-57
2023/04/17 04:22:38;;;;;;;1999.90;999.90;;;;;;;6.91;100.00;94680.88;5010455;28;20287;-57
2023/04/17 04:25:05;;;;;;;1999.90;999.90;;;;;;;6.81;100.00;94689.84;5011438;28;20187;-54
2023/04/17 04:27:31;;;;;;;1999.90;999.90;;;;;;;6.71;100.00;94698.84;5011711;28;20182;-55
2023/04/17 04:30:00;;;;;;;1999.90;999.90;;;;;;;6.67;100.00;94708.94;5011771;28;20234;-57
2023/04/17 04:32:26;;;;;;;1999.90;999.90;;;;;;;6.69;100.00;94714.72;5011527;28;20200;-57
2023/04/17 04:34:55;;;;;;;1999.90;999.90;;;;;;;6.65;100.00;94735.69;5011450;28;20207;-55
2023/04/17 04:37:20;;;;;;;1999.90;999.90;;;;;;;6.67;100.00;94727.94;5011011;28;20244;-57
2023/04/17 04:39:52;;;;;;;1999.90;999.90;;;;;;;6.75;100.00;94737.59;5011165;28;20187;-56
2023/04/17 04:42:20;;;;;;;1999.90;999.90;;;;;;;6.80;100.00;94746.06;5010948;28;20186;-55
2023/04/17 04:44:46;;;;;;;1999.90;999.90;;;;;;;6.85;100.00;94740.22;5010969;28;20206;-57
2023/04/17 04:47:11;;;;;;;1999.90;999.90;;;;;;;6.90;100.00;94747.19;5011171;28;20273;-56
2023/04/17 04:49:37;;;;;;;1999.90;999.90;;;;;;;6.93;100.00;94743.69;5011134;28;20282;-56
2023/04/17 04:52:02;;;;;;;1999.90;999.90;;;;;;;6.93;100.00;94757.25;5010816;28;20194;-56
2023/04/17 04:54:27;;;;;;;1999.90;999.90;;;;;;;6.90;100.00;94766.19;5011210;28;20207;-55
2023/04/17 04:56:53;;;;;;;1999.90;999.90;;;;;;;6.92;100.00;94758.41;5010892;28;20191;-56
2023/04/17 04:59:18;;;;;;;1999.90;999.90;;;;;;;6.98;100.00;94767.69;5010670;28;20240;-57
2023/04/17 05:01:43;;;;;;;1999.90;999.90;;;;;;;7.06;100.00;94771.91;5011105;28;20201;-56
2023/04/17 05:04:09;;;;;;;1999.90;999.90;;;;;;;7.12;100.00;94773.06;5010438;28;20237;-55
2023/04/17 05:06:34;;;;;;;1999.90;999.90;;;;;;;7.16;100.00;94773.81;5010449;28;20191;-55
2023/04/17 05:09:00;;;;;;;1999.90;999.90;;;;;;;7.22;100.00;94766.81;5010655;28;20186;-58
2023/04/17 05:11:25;;;;;;;1999.90;999.90;;;;;;;7.26;100.00;94773.00;5010713;28;20218;-54
2023/04/17 05:13:50;;;;;;;1999.90;999.90;;;;;;;7.28;100.00;94765.19;5010414;28;20243;-55
2023/04/17 05:16:16;;;;;;;1999.90;999.90;;;;;;;7.29;100.00;94772.19;5010376;28;20214;-54
2023/04/17 05:18:42;;;;;;;1999.90;999.90;;;;;;;7.21;100.00;94776.09;5010661;28;20190;-56
2023/04/17 05:21:08;;;;;;;1999.90;999.90;;;;;;;7.18;100.00;94797.84;5010379;28;20197;-55
2023/04/17 05:23:33;;;;;;;1999.90;999.90;;;;;;;7.21;100.00;94814.09;5010413;28;20187;-54
2023/04/17 05:25:59;;;;;;;1999.90;999.90;;;;;;;7.31;100.00;94828.81;5010169;28;20194;-57
2023/04/17 05:28:26;;;;;;;1999.90;999.90;;;;;;;7.38;100.00;94856.72;5010944;28;20186;-54
2023/04/17 05:30:51;;;;;;;1999.90;999.90;;;;;;;7.32;100.00;94890.13;5010668;28;20186;-55
2023/04/17 05:33:16;;;;;;;1999.90;999.90;;;;;;;7.36;100.00;94935.06;5010006;28;20195;-55
2023/04/17 05:35:42;;;;;;;1999.90;999.90;;;;;;;7.20;100.00;94980.13;5009822;28;20223;-55
2023/04/17 05:38:07;;;;;;;1999.90;999.90;;;;;;;7.12;100.00;95011.16;5010051;28;20356;-60
2023/04/17 05:40:33;;;;;;;1999.90;999.90;;;;;;;7.16;100.00;95031.72;5009795;28;20218;-54
2023/04/17 05:43:08;;;;;;;1999.90;999.90;;;;;;;7.14;100.00;95057.72;5010569;28;20262;-54
2023/04/17 05:45:33;;;;;;;1999.90;999.90;;;;;;;7.03;100.00;95074.00;5009682;28;20273;-54
2023/04/17 05:47:59;;;;;;;1999.90;999.90;;;;;;;6.81;100.00;95091.44;5009828;28;20202;-56
2023/04/17 05:50:24;;;;;;;1999.90;999.90;;;;;;;6.76;100.00;95103.47;5009642;28;20194;-54
2023/04/17 05:52:50;;;;;;;1999.90;999.90;;;;;;;6.60;100.00;95107.69;5009245;28;20203;-52
2023/04/17 05:55:15;;;;;;;1999.90;999.90;;;;;;;6.44;100.00;95109.97;5009606;28;20198;-53
2023/04/17 05:57:41;;;;;;;1999.90;999.90;;;;;;;6.34;100.00;95102.59;5010191;28;20201;-56
2023/04/17 06:00:10;;;;;;;1999.90;999.90;;;;;;;6.20;100.00;95089.00;5009848;28;20194;-54
2023/04/17 06:02:36;;;;;;;1999.90;999.90;;;;;;;5.98;100.00;95090.06;5009342;28;20197;-56
2023/04/17 06:05:05;;;;;;;1999.90;999.90;;;;;;;5.89;100.00;95070.66;5009242;28;20210;-54
2023/04/17 06:07:37;;;;;;;1999.90;999.90;;;;;;;5.92;100.00;95037.41;5009158;28;20201;-54
2023/04/17 06:10:02;;;;;;;1999.90;999.90;;;;;;;6.00;100.00;94987.47;5009458;28;20192;-54
2023/04/17 06:12:28;;;;;;;1999.90;999.90;;;;;;;6.06;100.00;94964.28;5009304;28;20192;-54
2023/04/17 06:14:53;;;;;;;1999.90;999.90;;;;;;;6.04;100.00;94931.34;5009241;28;20213;-51
2023/04/17 06:17:19;;;;;;;1999.90;999.90;;;;;;;6.13;100.00;94907.38;5009195;28;20381;-54
2023/04/17 06:19:44;;;;;;;1999.90;999.90;;;;;;;6.06;100.00;94882.97;5009352;28;20198;-51
2023/04/17 06:22:09;;;;;;;1999.90;999.90;;;;;;;6.19;100.00;94863.22;5009076;28;20198;-57
2023/04/17 06:24:35;;;;;;;1999.90;999.90;;;;;;;6.27;100.00;94837.66;5009654;28;20170;-48
2023/04/17 06:27:02;;;;;;;1999.90;999.90;;;;;;;6.35;100.00;94817.50;5009368;28;20192;-50
2023/04/17 06:29:28;;;;;;;1999.90;999.90;;;;;;;6.42;100.00;94811.31;5009276;28;20200;-51
2023/04/17 06:31:53;;;;;;;1999.90;999.90;;;;;;;6.55;100.00;94801.56;5009423;28;20201;-54
2023/04/17 06:34:19;;;;;;;1999.90;999.90;;;;;;;6.70;100.00;94784.88;5008917;28;20394;-51
2023/04/17 06:36:45;;;;;;;1999.90;999.90;;;;;;;6.89;100.00;94783.66;5008741;28;20245;-52
2023/04/17 06:39:10;;;;;;;1999.90;999.90;;;;;;;7.02;100.00;94784.72;5009142;28;20194;-51
2023/04/17 06:41:35;;;;;;;1999.90;999.90;;;;;;;7.20;100.00;94796.28;5008855;28;20265;-53
2023/04/17 06:44:01;;;;;;;1999.90;999.90;;;;;;;7.32;100.00;94820.25;5008113;28;20190;-53
2023/04/17 06:46:26;;;;;;;1999.90;999.90;;;;;;;7.34;100.00;94838.88;5008431;28;20382;-53
2023/04/17 06:48:51;;;;;;;1999.90;999.90;;;;;;;7.46;100.00;94876.47;5008655;28;20265;-53
2023/04/17 06:51:19;;;;;;;1999.90;999.90;;;;;;;7.63;100.00;94911.69;5008482;28;20190;-52
2023/04/17 06:53:46;;;;;;;1999.90;999.90;;;;;;;7.69;100.00;94967.19;5008428;28;20179;-50
2023/04/17 06:56:11;;;;;;;1999.90;999.90;;;;;;;7.67;100.00;95023.06;5008058;28;20329;-51
2023/04/17 06:58:42;;;;;;;1999.90;999.90;;;;;;;7.71;100.00;95065.38;5008801;28;20190;-52
2023/04/17 07:01:12;;;;;;;1999.90;999.90;;;;;;;7.81;100.00;95091.75;5008773;28;20191;-53
2023/04/17 07:03:38;;;;;;;1999.90;999.90;;;;;;;7.85;100.00;95122.41;5008524;28;20368;-52
2023/04/17 07:06:03;;;;;;;1999.90;999.90;;;;;;;7.92;100.00;95152.31;5008154;28;20195;-52
2023/04/17 07:08:29;;;;;;;1999.90;999.90;;;;;;;7.95;100.00;95170.56;5008217;28;20267;-50
2023/04/17 07:10:54;;;;;;;1999.90;999.90;;;;;;;7.98;100.00;95193.47;5008275;28;20197;-51
2023/04/17 07:13:20;;;;;;;1999.90;999.90;;;;;;;7.98;100.00;95205.09;5008276;28;20187;-52
2023/04/17 07:15:51;;;;;;;1999.90;999.90;;;;;;;7.97;100.00;95225.31;5008255;28;20210;-54
2023/04/17 07:18:17;;;;;;;1999.90;999.90;;;;;;;7.95;100.00;95230.38;5008507;28;20210;-51
2023/04/17 07:20:42;;;;;;;1999.90;999.90;;;;;;;7.99;100.00;95233.88;5008476;28;20205;-51
2023/04/17 07:23:08;;;;;;;1999.90;999.90;;;;;;;7.93;100.00;95240.06;5008349;28;20163;-54
2023/04/17 07:25:33;;;;;;;1999.90;999.90;;;;;;;7.97;100.00;95230.75;5008400;28;20244;-52
2023/04/17 07:27:58;;;;;;;1999.90;999.90;;;;;;;8.01;100.00;95247.81;5008417;28;20238;-54
2023/04/17 07:30:24;;;;;;;1999.90;999.90;;;;;;;8.02;100.00;95249.41;5008276;28;20201;-51
2023/04/17 07:32:49;;;;;;;1999.90;999.90;;;;;;;7.99;100.00;95254.81;5007921;28;20210;-53
2023/04/17 07:35:14;;;;;;;1999.90;999.90;;;;;;;7.99;100.00;95261.06;5007788;28;20215;-54
2023/04/17 07:37:40;;;;;;;1999.90;999.90;;;;;;;7.98;100.00;95258.72;5007858;28;20198;-54
2023/04/17 07:40:07;;;;;;;1999.90;999.90;;;;;;;7.91;100.00;95259.50;5007834;28;20219;-50
2023/04/17 07:42:33;;;;;;;1999.90;999.90;;;;;;;7.95;100.00;95257.56;5007875;28;20187;-55
2023/04/17 07:44:58;;;;;;;1999.90;999.90;;;;;;;7.98;100.00;95262.19;5007967;28;20265;-53
2023/04/17 07:47:24;;;;;;;1999.90;999.90;;;;;;;8.12;100.00;95254.03;5007878;28;20187;-53
2023/04/17 07:49:50;;;;;;;1999.90;999.90;;;;;;;8.08;100.00;95253.25;5007750;28;20195;-52
2023/04/17 07:52:16;;;;;;;1999.90;999.90;;;;;;;8.18;100.00;95257.13;5007508;28;20237;-53
2023/04/17 07:54:43;;;;;;;1999.90;999.90;;;;;;;8.03;100.00;95261.81;5007338;28;20215;-54
2023/04/17 07:57:08;;;;;;;1999.90;999.90;;;;;;;8.05;100.00;95248.59;5006705;28;20191;-54
2023/04/17 07:59:35;;;;;;;1999.90;999.90;;;;;;;8.08;100.00;95245.09;5007572;28;20220;-53
2023/04/17 08:02:01;;;;;;;1999.90;999.90;;;;;;;8.18;100.00;95240.81;5007638;28;20195;-50
2023/04/17 08:04:26;;;;;;;1999.90;999.90;;;;;;;8.23;100.00;95230.34;5007855;28;20207;-53
2023/04/17 08:06:51;;;;;;;1999.90;999.90;;;;;;;8.28;100.00;95242.78;5007345;28;20381;-54
2023/04/17 08:09:17;;;;;;;1999.90;999.90;;;;;;;8.33;100.00;95243.16;5007454;28;20195;-53
2023/04/17 08:11:44;;;;;;;1999.90;999.90;;;;;;;8.46;100.00;95243.50;5007232;28;20245;-55
2023/04/17 08:14:10;;;;;;;1999.90;999.90;;;;;;;8.47;100.00;95245.84;5007444;28;20195;-53
2023/04/17 08:16:36;;;;;;;1999.90;999.90;;;;;;;8.46;100.00;95246.25;5007379;28;20199;-54
2023/04/17 08:19:01;;;;;;;1999.90;999.90;;;;;;;8.53;100.00;95249.69;5007705;28;20265;-54
2023/04/17 08:21:27;;;;;;;1999.90;999.90;;;;;;;8.56;100.00;95259.81;5006934;28;20191;-58
2023/04/17 08:23:52;;;;;;;1999.90;999.90;;;;;;;8.60;100.00;95260.56;5007939;28;20175;-53
2023/04/17 08:26:19;;;;;;;1999.90;999.90;;;;;;;8.50;100.00;95269.56;5007732;28;20191;-49
2023/04/17 08:28:45;;;;;;;1999.90;999.90;;;;;;;8.62;100.00;95274.56;5007875;28;20339;-52
2023/04/17 08:31:10;;;;;;;1999.90;999.90;;;;;;;8.60;100.00;95289.75;5007465;28;20218;-57
2023/04/17 08:33:36;;;;;;;1999.90;999.90;;;;;;;8.69;100.00;95282.72;5007262;28;20186;-55
2023/04/17 08:36:01;;;;;;;1999.90;999.90;;;;;;;8.77;100.00;95283.47;5007379;28;20203;-53
2023/04/17 08:38:28;;;;;;;1999.90;999.90;;;;;;;8.82;100.00;95294.72;5007060;28;20199;-56
2023/04/17 08:41:01;;;;;;;1999.90;999.90;;;;;;;8.90;100.00;95290.81;5007288;28;20267;-52
2023/04/17 08:43:28;;;;;;;1999.90;999.90;;;;;;;9.01;100.00;95299.72;5007163;28;20199;-55
2023/04/17 08:45:54;;;;;;;1999.90;999.90;;;;;;;9.04;100.00;95312.53;5007585;28;20231;-55
2023/04/17 08:48:21;;;;;;;1999.90;999.90;;;;;;;9.16;100.00;95312.13;5007312;28;20191;-52
2023/04/17 08:50:48;;;;;;;1999.90;999.90;;;;;;;9.24;100.00;95329.19;5006937;28;20203;-51
2023/04/17 08:53:14;;;;;;;1999.90;999.90;;;;;;;9.27;100.00;95345.53;5007466;28;20208;-52
2023/04/17 08:55:39;;;;;;;1999.90;999.90;;;;;;;9.39;100.00;95357.94;5007343;28;20212;-51
2023/04/17 08:58:06;;;;;;;1999.90;999.90;;;;;;;9.56;100.00;95368.78;5007009;28;20241;-52
2023/04/17 09:00:34;;;;;;;1999.90;999.90;;;;;;;9.51;100.00;95382.81;5007316;28;20215;-54
2023/04/17 09:03:02;;;;;;;1999.90;999.90;;;;;;;9.56;100.00;95401.47;5006770;28;20199;-54
2023/04/17 09:05:29;;;;;;;1999.90;999.90;;;;;;;9.75;100.00;95417.38;5006991;28;20425;-52
2023/04/17 09:08:16;;;;;;;1999.90;999.90;;;;;;;9.94;100.00;95422.31;5008469;28;20492;-53
2023/04/17 09:10:46;;;;;;;1999.90;999.90;;;;;;;9.86;100.00;95450.81;5010664;28;20202;-53
2023/04/17 09:13:13;;;;;;;1999.90;999.90;;;;;;;9.93;100.00;95464.44;5010379;28;20267;-57
2023/04/17 09:15:40;;;;;;;1999.90;999.90;;;;;;;9.97;100.00;95472.56;5011179;28;20278;-52
2023/04/17 09:18:22;;;;;;;1999.90;999.90;;;;;;;10.13;100.00;95479.16;5011136;28;20229;-52
2023/04/17 09:20:50;;;;;;;1999.90;999.90;;;;;;;10.38;100.00;95489.91;5010292;28;20340;-52
2023/04/17 09:23:16;;;;;;;1999.90;999.90;;;;;;;10.65;100.00;95492.88;5010318;28;20221;-50
2023/04/17 09:25:42;;;;;;;1999.90;999.90;;;;;;;10.90;100.00;95507.13;5010434;28;20198;-53
2023/04/17 09:28:13;;;;;;;1999.90;999.90;;;;;;;11.05;100.00;95517.56;5010981;28;20208;-54
2023/04/17 09:30:39;;;;;;;1999.90;999.90;;;;;;;11.24;100.00;95536.13;5010274;28;20214;-51
2023/04/17 09:33:06;;;;;;;1999.90;999.90;;;;;;;11.75;100.00;95544.28;5010029;28;20198;-50
2023/04/17 09:35:32;;;;;;;1999.90;999.90;;;;;;;11.97;100.00;95572.19;5010540;28;20203;-52
2023/04/17 09:38:00;;;;;;;1999.90;999.90;;;;;;;12.39;100.00;95572.47;5010233;28;20229;-55
2023/04/17 09:40:34;;;;;;;1999.90;999.90;;;;;;;12.45;100.00;95600.19;5010071;28;20179;-49
2023/04/17 09:43:02;;;;;;;1999.90;999.90;;;;;;;12.80;100.00;95602.47;5010101;28;20230;-53
2023/04/17 09:45:35;;;;;;;1999.90;999.90;;;;;;;12.86;100.00;95617.28;5009783;28;20206;-51
2023/04/17 09:48:11;;;;;;;1999.90;999.90;;;;;;;12.65;100.00;95634.00;5010157;28;20294;-51
2023/04/17 09:50:37;;;;;;;1999.90;999.90;;;;;;;12.50;100.00;95632.63;5009998;28;20198;-53
2023/04/17 09:53:03;;;;;;;1999.90;999.90;;;;;;;12.31;100.00;95631.25;5009924;28;20210;-52
2023/04/17 09:55:34;;;;;;;1999.90;999.90;;;;;;;12.10;100.00;95630.72;5009628;28;20211;-50
2023/04/17 09:58:02;;;;;;;1999.90;999.90;;;;;;;11.97;100.00;95632.41;5009940;28;20233;-51
2023/04/17 10:00:28;;;;;;;1999.90;999.90;;;;;;;11.89;100.00;95630.91;5009516;28;20202;-53
2023/04/17 10:02:55;;;;;;;1999.90;999.90;;;;;;;11.68;100.00;95625.63;5009579;28;20187;-51
2023/04/17 10:05:22;;;;;;;1999.90;999.90;;;;;;;11.73;100.00;95627.94;5009484;28;20218;-52
2023/04/17 10:07:48;;;;;;;1999.90;999.90;;;;;;;11.71;100.00;95619.34;5010022;28;20199;-53
2023/04/17 10:10:32;;;;;;;1999.90;999.90;;;;;;;11.94;100.00;95616.78;5009682;28;20207;-53
2023/04/17 10:13:03;;;;;;;1999.90;999.90;;;;;;;11.77;100.00;95612.28;5009460;28;20266;-54
2023/04/17 10:15:29;;;;;;;1999.90;999.90;;;;;;;11.79;100.00;95605.22;5009486;28;20238;-55
2023/04/17 10:18:15;;;;;;;1999.90;999.90;;;;;;;11.55;100.00;95608.16;5009360;28;20195;-55
2023/04/17 10:20:43;;;;;;;1999.90;999.90;;;;;;;11.56;100.00;95596.81;5008862;28;20269;-54
2023/04/17 10:23:45;;;;;;;1999.90;999.90;;;;;;;11.50;100.00;95600.34;5009697;28;20210;-53
2023/04/17 10:26:25;;;;;;;1999.90;999.90;;;;;;;11.75;100.00;95598.22;4931566;29;20209;-54
2023/04/17 10:28:52;;;;;;;1999.90;999.90;;;;;;;12.22;100.00;95595.38;5001525;28;20210;-53
2023/04/17 10:31:18;;;;;;;1999.90;999.90;;;;;;;12.47;100.00;95597.81;5008986;28;20273;-55
2023/04/17 10:33:52;;;;;;;1999.90;999.90;;;;;;;12.47;100.00;95600.56;5009164;28;20198;-51
2023/04/17 10:36:38;;;;;;;1999.90;999.90;;;;;;;12.34;100.00;95608.53;5008628;28;20218;-55
2023/04/17 10:39:19;;;;;;;1999.90;999.90;;;;;;;12.15;100.00;95605.63;5009227;28;20274;-55
2023/04/17 10:42:04;;;;;;;1999.90;999.90;;;;;;;11.99;100.00;95613.63;5008880;28;20226;-53
2023/04/17 10:44:39;;;;;;;1999.90;999.90;;;;;;;11.61;100.00;95612.81;5008920;28;20209;-52
2023/04/17 10:47:14;;;;;;;1999.90;999.90;;;;;;;11.62;100.00;95599.91;5009599;28;20194;-53
2023/04/17 10:50:04;;;;;;;1999.90;999.90;;;;;;;11.26;100.00;95598.63;5008915;28;20562;-54